Flight Track Log - Related Links

Times and Time Zones

All times are in EDT time to prevent confusion due to time zone crossing. See the SWA2339 flight status page for this flight to view local times or setup timezone preferences in your user account.

Time Position Orientation Groundspeed Altitude Reporting Facility
EDT Latitude Longitude Course Direction KTS MPH feet Rate Location/Type
Sun 06:27:18 AM 42.3667 -71.0000 124° Southeast 225 259 600  Level KA90
Sun 06:28:18 AM 42.3333 -70.9333 124° Southeast 201 231 3,100 3,053 Climbing KA90
Sun 06:29:12 AM 42.3167 -70.8667 109° East 260 299 6,400 4,000 Climbing KA90
Sun 06:30:18 AM 42.3167 -70.7500 90° East 288 331 11,100 3,318 Climbing KA90
Sun 06:31:24 AM 42.2289 -70.7242 168° South 366 421 13,700 2,714 Climbing Boston Center
Sun 06:32:24 AM 42.1722 -70.8294 234° Southwest 308 354 16,800 3,050 Climbing Boston Center
Sun 06:33:24 AM 42.1575 -70.9669 262° West 312 359 19,800 3,050 Climbing Boston Center
Sun 06:34:24 AM 42.1467 -71.1100 264° West 353 406 22,900 2,000 Climbing Boston Center
Sun 06:35:24 AM 42.1339 -71.2697 264° West 382 440 23,800 1,800 Climbing Boston Center
Sun 06:36:24 AM 42.1208 -71.4186 263° West 402 463 26,500 2,300 Climbing Boston Center
Sun 06:37:24 AM 42.1114 -71.5389 264° West 408 470 28,400 2,750 Climbing Boston Center
Sun 06:38:24 AM 42.0875 -71.7017 259° West 408 470 32,000 2,800 Climbing Boston Center
Sun 06:39:24 AM 42.0694 -71.8417 260° West 408 470 34,000 1,050 Climbing Boston Center
Sun 06:40:24 AM 42.0494 -71.9872 260° West 408 470 34,100 1,000 Climbing Boston Center
Sun 06:41:24 AM 42.0247 -72.1356 257° West 408 470 36,000 2,000 Climbing Boston Center
Sun 06:42:24 AM 42.0022 -72.2864 259° West 408 470 38,100 1,850 Climbing Boston Center
Sun 06:43:24 AM 41.9731 -72.4289 255° West 408 470 39,700 750 Climbing Boston Center
Sun 06:44:24 AM 41.9022 -72.5544 233° Southwest 408 470 39,600 -500 Descending Boston Center
Sun 06:45:24 AM 41.8333 -72.6742 232° Southwest 414 476 38,700 -950 Descending Boston Center
Sun 06:46:24 AM 41.7517 -72.8103 231° Southwest 420 483 37,700 -850 Descending Boston Center
Sun 06:47:24 AM 41.6783 -72.9292 230° Southwest 425 489 37,000 -500 Descending Boston Center
Sun 06:48:24 AM 41.6047 -73.0508 231° Southwest 425 489 36,700 -650 Descending Boston Center
Sun 06:49:24 AM 41.5311 -73.1750 232° Southwest 425 489 35,700 -950 Descending Boston Center
Sun 06:50:24 AM 41.4678 -73.2794 231° Southwest 419 482 34,800 -900 Descending Boston Center
Sun 06:51:24 AM 41.3939 -73.4031 231° Southwest 424 488 33,900 -980 Descending Boston Center
Sun 06:53:40 AM 41.2172 -73.6922 231° Southwest 441 507 31,600 -1,010 Descending New York Center
Sun 06:54:40 AM 41.1453 -73.8186 233° Southwest 441 507 30,600 -787 Descending New York Center
Sun 06:55:42 AM 41.0689 -73.9444 231° Southwest 441 507 30,000 -300 Descending New York Center
Sun 06:56:40 AM 40.9947 -74.0728 233° Southwest 441 507 30,000  Level New York Center
Sun 06:57:41 AM 40.9142 -74.1953 229° Southwest 441 507 30,000  Level New York Center
Sun 06:58:40 AM 40.8397 -74.3175 231° Southwest 441 507 30,000  Level New York Center
Sun 06:59:41 AM 40.7628 -74.4450 231° Southwest 441 507 30,000 -800 Level New York Center
Sun 07:00:40 AM 40.6881 -74.5642 230° Southwest 441 507 28,400 -1,008 Descending New York Center
Sun 07:01:40 AM 40.6069 -74.6881 229° Southwest 441 507 28,000 -248 Descending New York Center
Sun 07:02:41 AM 40.5281 -74.8092 229° Southwest 446 513 27,900  Descending New York Center
Sun 07:03:41 AM 40.4514 -74.9167 227° Southwest 433 498 28,000 -843 Climbing New York Center
Sun 07:04:42 AM 40.3744 -75.0264 227° Southwest 428 493 26,200 -2,319 Descending New York Center
Sun 07:05:40 AM 40.2994 -75.1389 229° Southwest 423 487 23,400 -2,695 Descending New York Center
Sun 07:06:40 AM 40.2333 -75.2381 229° Southwest 423 487 20,900 -2,579 Descending New York Center
Sun 07:07:41 AM 40.1497 -75.3494 226° Southwest 406 467 18,200 -1,426 Descending New York Center
Sun 07:08:42 AM 40.0836 -75.4400 226° Southwest 389 448 18,000 -100 Descending New York Center
Sun 07:09:41 AM 40.0086 -75.5433 227° Southwest 372 428 18,000 -102 Level New York Center
Sun 07:10:40 AM 39.9467 -75.6286 227° Southwest 367 422 17,800 -650 Descending New York Center
Sun 07:11:41 AM 39.8817 -75.7403 233° Southwest 367 422 16,700 -843 Descending New York Center
Sun 07:12:41 AM 39.8317 -75.8367 236° Southwest 362 417 16,100 -1,416 Descending New York Center
Sun 07:14:39 AM 39.7167 -76.0500 235° Southwest 329 379 12,500 -1,382 Descending Potomac TRACON
Sun 07:15:39 AM 39.6667 -76.1333 232° Southwest 306 352 12,000 -500 Descending Potomac TRACON
Sun 07:16:39 AM 39.6333 -76.2333 247° West 297 342 11,500 -789 Descending Potomac TRACON
Sun 07:17:33 AM 39.5833 -76.3167 232° Southwest 286 329 10,500 -1,190 Descending Potomac TRACON
Sun 07:18:40 AM 39.5500 -76.4000 243° Southwest 285 328 9,100 -1,348 Descending Potomac TRACON
Sun 07:20:00 AM 39.4300 -76.4863 218° Southwest  Level Estimated
Sun 07:20:40 AM 39.4667 -76.5833 218° Southwest 275 316 6,300  Level Potomac TRACON
Sun 07:21:28 AM 39.4333 -76.6500 237° Southwest 269 310 5,000 -882 Descending Potomac TRACON
Sun 07:22:22 AM 39.4167 -76.7167 252° West 263 303 4,800 -900 Descending Potomac TRACON
Sun 07:23:28 AM 39.3500 -76.7833 218° Southwest 246 283 3,200 -1,000 Descending Potomac TRACON
Sun 07:24:28 AM 39.2833 -76.8000 191° South 204 235 2,700 -611 Descending Potomac TRACON
Sun 07:25:16 AM 39.2500 -76.7833 159° South 170 196 2,100 -632 Descending Potomac TRACON
Sun 07:26:22 AM 39.2000 -76.7833 180° South 145 167 1,500 -450 Descending Potomac TRACON
Sun 07:27:16 AM 39.1833 -76.7500 123° Southeast 125 144 1,200 -550 Descending Potomac TRACON
Sun 07:28:11 AM 39.1833 -76.7167 90° East 139 160 500 -764 Descending Potomac TRACON
Sun 07:30:00 AM 39.1667 -76.6667 270° West  Level FlightAware Approximate
Sun 07:37:00 AM 39.1754 -76.6683 270° West  Level Estimated
Sun 07:38:00 AM 39.1754 -76.6683 270° West  Level Estimated
Sun 07:39:00 AM 39.1754 -76.6683 270° West  Level Estimated

Login

Don't have an account? Register now (free) for customized features, flight alerts, and more!